createdAt,value
2022-09-07T00:00:05.028Z,17.50
2022-09-07T00:02:32.167Z,17.40
2022-09-07T00:04:59.259Z,17.20
2022-09-07T00:07:26.300Z,17.10
2022-09-07T00:09:53.640Z,16.80
2022-09-07T00:12:20.879Z,16.60
2022-09-07T00:14:47.971Z,16.50
2022-09-07T00:17:15.220Z,16.40
2022-09-07T00:19:42.287Z,16.30
2022-09-07T00:22:09.368Z,16.30
2022-09-07T00:24:36.482Z,16.30
2022-09-07T00:27:03.541Z,16.20
2022-09-07T00:29:30.706Z,16.20
2022-09-07T00:31:57.707Z,16.20
2022-09-07T00:34:24.926Z,16.20
2022-09-07T00:36:51.993Z,16.20
2022-09-07T00:39:19.361Z,16.20
2022-09-07T00:41:46.368Z,16.30
2022-09-07T00:44:32.110Z,16.30
2022-09-07T00:46:59.348Z,16.30
2022-09-07T00:49:26.687Z,16.30
2022-09-07T00:51:55.614Z,16.30
2022-09-07T00:54:25.354Z,16.30
2022-09-07T00:56:55.852Z,16.30
2022-09-07T00:59:26.866Z,16.20
2022-09-07T01:01:54.374Z,16.20
2022-09-07T01:04:22.457Z,16.10
2022-09-07T01:06:49.838Z,16.10
2022-09-07T01:09:18.883Z,16.00
2022-09-07T01:11:51.328Z,16.00
2022-09-07T01:14:19.989Z,16.10
2022-09-07T01:16:59.026Z,16.10
2022-09-07T01:19:38.054Z,16.10
2022-09-07T01:22:05.136Z,16.10
2022-09-07T01:24:41.917Z,16.10
2022-09-07T01:27:22.554Z,16.10
2022-09-07T01:29:50.162Z,16.00
2022-09-07T01:32:25.679Z,16.00
2022-09-07T01:34:53.658Z,16.00
2022-09-07T01:37:20.692Z,16.00
2022-09-07T01:39:54.061Z,16.00
2022-09-07T01:42:23.209Z,16.00
2022-09-07T01:44:53.934Z,16.00
2022-09-07T01:47:23.485Z,16.00
2022-09-07T01:50:01.789Z,15.90
2022-09-07T01:52:29.009Z,15.90
2022-09-07T01:55:00.556Z,15.90
2022-09-07T01:57:32.018Z,15.90
2022-09-07T02:00:27.980Z,15.90
2022-09-07T02:03:05.614Z,15.80
2022-09-07T02:05:35.994Z,15.80
2022-09-07T02:08:14.450Z,15.80
2022-09-07T02:10:49.060Z,15.80
2022-09-07T02:13:16.050Z,15.80
2022-09-07T02:16:09.764Z,15.80
2022-09-07T02:18:43.821Z,15.80
2022-09-07T02:21:11.374Z,15.70
2022-09-07T02:23:44.543Z,15.70
2022-09-07T02:26:14.245Z,15.80
2022-09-07T02:28:41.617Z,15.70
2022-09-07T02:31:09.044Z,15.70
2022-09-07T02:33:36.352Z,15.70
2022-09-07T02:36:04.770Z,15.70
2022-09-07T02:38:32.386Z,15.70
2022-09-07T02:41:00.614Z,15.70
2022-09-07T02:43:28.329Z,15.60
2022-09-07T02:46:06.792Z,15.60
2022-09-07T02:48:40.108Z,15.60
2022-09-07T02:51:07.634Z,15.60
2022-09-07T02:53:34.649Z,15.60
2022-09-07T02:56:20.331Z,15.60
2022-09-07T02:58:47.466Z,15.60
2022-09-07T03:01:38.564Z,15.50
2022-09-07T03:04:11.581Z,15.50
2022-09-07T03:06:38.787Z,15.50
2022-09-07T03:09:07.901Z,15.50
2022-09-07T03:11:38.064Z,15.40
2022-09-07T03:14:19.385Z,15.40
2022-09-07T03:16:48.348Z,15.30
2022-09-07T03:19:15.589Z,15.30
2022-09-07T03:21:42.838Z,15.40
2022-09-07T03:24:09.923Z,15.40
2022-09-07T03:26:39.202Z,15.40
2022-09-07T03:29:06.127Z,15.40
2022-09-07T03:31:33.855Z,15.40
2022-09-07T03:34:00.989Z,15.40
2022-09-07T03:36:29.311Z,15.40
2022-09-07T03:38:56.513Z,15.30
2022-09-07T03:41:23.648Z,15.30
2022-09-07T03:43:50.673Z,15.30
2022-09-07T03:46:19.868Z,15.30
2022-09-07T03:48:47.984Z,15.30
2022-09-07T03:51:16.045Z,15.30
2022-09-07T03:53:44.530Z,15.30
2022-09-07T03:56:16.419Z,15.30
2022-09-07T03:58:43.436Z,15.30
2022-09-07T04:01:11.858Z,15.30
2022-09-07T04:03:39.689Z,15.30
2022-09-07T04:06:06.966Z,15.30
2022-09-07T04:08:35.197Z,15.30
2022-09-07T04:11:04.187Z,15.20
2022-09-07T04:13:31.834Z,15.20
2022-09-07T04:15:59.045Z,15.20
2022-09-07T04:18:26.170Z,15.20
2022-09-07T04:20:53.275Z,15.20
2022-09-07T04:23:20.644Z,15.20
2022-09-07T04:25:52.141Z,15.20
2022-09-07T04:28:20.145Z,15.20
2022-09-07T04:30:47.839Z,15.20
2022-09-07T04:33:15.812Z,15.20
2022-09-07T04:35:43.388Z,15.20
2022-09-07T04:38:13.957Z,15.10
2022-09-07T04:40:41.277Z,15.10
2022-09-07T04:43:09.800Z,15.10
2022-09-07T04:45:37.504Z,15.10
2022-09-07T04:48:05.176Z,15.10
2022-09-07T04:50:32.328Z,15.10
2022-09-07T04:52:59.497Z,15.10
2022-09-07T04:55:26.569Z,15.10
2022-09-07T04:57:53.726Z,15.10
2022-09-07T05:00:20.958Z,15.10
2022-09-07T05:02:48.115Z,15.10
2022-09-07T05:05:15.170Z,15.10
2022-09-07T05:07:42.339Z,15.10
2022-09-07T05:10:09.454Z,15.10
2022-09-07T05:12:36.669Z,15.10
2022-09-07T05:15:04.396Z,15.10
2022-09-07T05:17:31.709Z,15.20
2022-09-07T05:19:58.755Z,15.20
2022-09-07T05:22:25.839Z,15.20
2022-09-07T05:24:52.892Z,15.30
2022-09-07T05:27:20.115Z,15.30
2022-09-07T05:30:03.868Z,15.30
2022-09-07T05:32:32.504Z,15.30
2022-09-07T05:34:59.942Z,15.40
2022-09-07T05:37:27.000Z,15.40
2022-09-07T05:39:56.187Z,15.50
2022-09-07T05:42:23.379Z,15.60
2022-09-07T05:44:50.379Z,15.70
2022-09-07T05:47:17.537Z,15.80
2022-09-07T05:49:44.807Z,15.90
2022-09-07T05:52:11.942Z,16.50
2022-09-07T05:54:39.052Z,17.20
2022-09-07T05:57:07.453Z,17.30
2022-09-07T05:59:34.795Z,17.80
2022-09-07T06:02:02.071Z,18.10
2022-09-07T06:04:29.359Z,18.70
2022-09-07T06:07:20.460Z,19.20
2022-09-07T06:12:30.999Z,20.70
2022-09-07T06:14:57.976Z,21.30
2022-09-07T06:17:25.172Z,21.80
2022-09-07T06:19:52.385Z,22.30
2022-09-07T06:22:19.476Z,22.30
2022-09-07T06:24:46.703Z,22.10
2022-09-07T06:27:13.851Z,21.60
2022-09-07T06:29:40.927Z,21.60
2022-09-07T06:34:55.319Z,21.90
2022-09-07T06:37:22.421Z,22.20
2022-09-07T06:39:49.808Z,21.90
2022-09-07T06:42:17.079Z,21.80
2022-09-07T06:44:44.199Z,22.00
2022-09-07T06:47:11.501Z,21.90
2022-09-07T06:49:38.580Z,22.40
2022-09-07T06:52:05.791Z,22.70
2022-09-07T06:57:20.009Z,23.40
2022-09-07T06:59:47.123Z,23.10
2022-09-07T07:02:15.320Z,23.20
2022-09-07T07:04:42.468Z,23.30
2022-09-07T07:07:13.245Z,23.60
2022-09-07T07:09:40.771Z,23.40
2022-09-07T07:12:08.010Z,23.30
2022-09-07T07:14:38.665Z,22.80
2022-09-07T07:17:08.511Z,22.40
2022-09-07T07:19:35.745Z,22.20
2022-09-07T07:22:18.818Z,22.30
2022-09-07T07:24:49.958Z,21.90
2022-09-07T07:27:17.882Z,21.60
2022-09-07T07:29:45.747Z,21.70
2022-09-07T07:32:12.907Z,21.50
2022-09-07T07:34:39.982Z,21.40
2022-09-07T07:37:07.004Z,21.00
2022-09-07T07:42:21.217Z,20.90
2022-09-07T07:44:48.880Z,20.90
2022-09-07T07:47:16.155Z,21.10
2022-09-07T07:49:43.222Z,21.30
2022-09-07T07:54:57.454Z,21.20
2022-09-07T07:57:24.542Z,21.20
2022-09-07T07:59:51.793Z,21.20
2022-09-07T08:02:18.937Z,21.10
2022-09-07T08:04:46.121Z,20.90
2022-09-07T08:07:13.334Z,21.00
2022-09-07T08:09:40.925Z,21.20
2022-09-07T08:12:08.786Z,21.10
2022-09-07T08:14:42.125Z,20.90
2022-09-07T08:17:13.041Z,21.10
2022-09-07T08:19:40.422Z,21.20
2022-09-07T08:22:09.093Z,21.20
2022-09-07T08:24:36.313Z,21.20
2022-09-07T08:27:04.059Z,21.10
2022-09-07T08:29:34.490Z,20.90
2022-09-07T08:32:03.944Z,21.10
2022-09-07T08:34:31.141Z,21.30
2022-09-07T08:36:58.441Z,21.40
2022-09-07T08:39:25.790Z,21.40
2022-09-07T08:42:03.359Z,21.40
2022-09-07T08:44:43.074Z,21.40
2022-09-07T08:47:15.925Z,21.40
2022-09-07T08:49:48.900Z,21.40
2022-09-07T08:52:19.886Z,21.50
2022-09-07T08:54:50.201Z,21.20
2022-09-07T08:57:21.409Z,21.20
2022-09-07T09:00:02.813Z,21.30
2022-09-07T09:02:32.592Z,21.60
2022-09-07T09:05:19.777Z,21.60
2022-09-07T09:07:53.587Z,21.70
2022-09-07T09:10:27.561Z,21.90
2022-09-07T09:13:01.719Z,21.60
2022-09-07T09:15:35.015Z,21.50
2022-09-07T09:18:19.415Z,21.70
2022-09-07T09:21:08.073Z,21.70
2022-09-07T09:23:37.252Z,21.60
2022-09-07T09:26:30.677Z,21.60
2022-09-07T09:28:58.009Z,21.70
2022-09-07T09:31:28.492Z,21.80
2022-09-07T09:34:09.077Z,21.90
2022-09-07T09:36:41.166Z,22.00
2022-09-07T09:39:27.162Z,21.80
2022-09-07T09:41:55.878Z,22.00
2022-09-07T09:44:23.534Z,22.30
2022-09-07T09:49:41.420Z,22.30
2022-09-07T09:52:42.957Z,22.10
2022-09-07T10:03:59.387Z,21.50
2022-09-07T10:06:28.466Z,21.50
2022-09-07T10:08:57.818Z,21.60
2022-09-07T10:14:35.506Z,22.00
2022-09-07T10:20:33.890Z,21.90
2022-09-07T10:23:01.304Z,22.00
2022-09-07T10:25:28.671Z,21.90
2022-09-07T10:28:06.456Z,21.80
2022-09-07T10:30:37.007Z,22.10
2022-09-07T10:33:16.738Z,22.30
2022-09-07T10:35:54.731Z,22.20
2022-09-07T10:38:26.289Z,22.30
2022-09-07T10:40:53.360Z,22.50
2022-09-07T10:43:21.274Z,22.30
2022-09-07T10:46:04.982Z,22.30
2022-09-07T10:48:40.521Z,22.30
2022-09-07T10:51:26.155Z,22.40
2022-09-07T10:56:47.746Z,22.70
2022-09-07T10:59:17.942Z,23.20
2022-09-07T11:02:05.677Z,23.80
2022-09-07T11:04:38.996Z,23.90
2022-09-07T11:07:23.375Z,24.00
2022-09-07T11:09:56.713Z,24.00
2022-09-07T11:12:28.266Z,24.30
2022-09-07T11:15:13.819Z,24.40
2022-09-07T11:17:44.160Z,24.30
2022-09-07T11:20:17.589Z,24.20
2022-09-07T11:22:54.799Z,24.20
2022-09-07T11:25:32.277Z,24.30
2022-09-07T11:28:04.120Z,24.50
2022-09-07T11:30:35.610Z,24.80
2022-09-07T11:33:26.138Z,24.90
2022-09-07T11:36:13.322Z,25.60
2022-09-07T11:39:06.571Z,26.20
2022-09-07T11:41:45.135Z,25.70
2022-09-07T11:44:20.806Z,25.20
2022-09-07T11:46:49.434Z,24.70
2022-09-07T11:49:23.443Z,24.20
2022-09-07T11:51:56.098Z,24.20
2022-09-07T11:54:37.461Z,24.00
2022-09-07T11:57:20.425Z,24.40
2022-09-07T11:59:47.293Z,25.10
2022-09-07T12:02:14.229Z,25.70
2022-09-07T12:05:00.969Z,25.40
2022-09-07T12:07:42.879Z,25.30
2022-09-07T12:10:12.514Z,25.00
2022-09-07T12:12:43.823Z,25.00
2022-09-07T12:15:13.786Z,24.80
2022-09-07T12:18:03.695Z,24.80
2022-09-07T12:20:43.383Z,25.10
2022-09-07T12:23:16.314Z,25.10
2022-09-07T12:25:44.061Z,24.70
2022-09-07T12:28:21.802Z,24.50
2022-09-07T12:30:59.189Z,24.50
2022-09-07T12:33:30.904Z,24.50
2022-09-07T12:35:59.175Z,24.80
2022-09-07T12:38:32.119Z,25.10
2022-09-07T12:41:03.626Z,25.20
2022-09-07T12:43:35.034Z,25.50
2022-09-07T12:46:02.191Z,25.40
2022-09-07T12:48:31.884Z,25.20
2022-09-07T12:50:59.168Z,24.80
2022-09-07T12:53:29.398Z,24.80
2022-09-07T12:56:17.990Z,24.90
2022-09-07T12:58:47.767Z,25.40
2022-09-07T13:01:33.334Z,25.30
2022-09-07T13:04:12.792Z,25.70
2022-09-07T13:09:31.411Z,26.60
2022-09-07T13:11:58.711Z,26.60
2022-09-07T13:14:29.611Z,27.00
2022-09-07T13:17:16.418Z,26.60
2022-09-07T13:19:46.493Z,26.40
2022-09-07T13:22:31.709Z,26.80
2022-09-07T13:25:00.006Z,27.00
2022-09-07T13:27:32.969Z,27.30
2022-09-07T13:30:02.568Z,27.70
2022-09-07T13:35:25.232Z,27.60
2022-09-07T13:37:54.471Z,27.20
2022-09-07T13:40:24.534Z,27.00
2022-09-07T13:42:52.498Z,26.80
2022-09-07T13:45:28.238Z,26.80
2022-09-07T13:48:01.781Z,26.30
2022-09-07T13:50:31.703Z,26.40
2022-09-07T13:53:11.477Z,27.20
2022-09-07T13:55:47.669Z,26.90
2022-09-07T13:58:17.904Z,26.20
2022-09-07T14:00:52.195Z,25.60
2022-09-07T14:03:19.119Z,25.30
2022-09-07T14:05:46.007Z,24.80
2022-09-07T14:08:28.904Z,24.80
2022-09-07T14:10:56.022Z,25.70
2022-09-07T14:13:22.858Z,26.20
2022-09-07T14:15:50.408Z,26.10
2022-09-07T14:18:43.754Z,26.10
2022-09-07T14:21:17.258Z,26.50
2022-09-07T14:23:49.697Z,26.50
2022-09-07T14:26:17.473Z,27.00
2022-09-07T14:28:46.089Z,27.80
2022-09-07T14:31:14.521Z,27.70
2022-09-07T14:33:50.066Z,27.00
2022-09-07T14:36:41.866Z,26.30
2022-09-07T14:39:06.597Z,25.80
2022-09-07T14:41:34.917Z,25.60
2022-09-07T14:44:01.847Z,25.50
2022-09-07T14:46:34.304Z,25.50
2022-09-07T14:49:18.184Z,25.50
2022-09-07T14:51:45.826Z,25.20
2022-09-07T14:54:20.075Z,25.20
2022-09-07T14:57:01.183Z,25.00
2022-09-07T14:59:39.261Z,25.10
2022-09-07T15:02:24.090Z,25.10
2022-09-07T15:05:11.299Z,25.20
2022-09-07T15:07:42.173Z,25.20
2022-09-07T15:10:16.365Z,25.20
2022-09-07T15:12:44.334Z,25.20
2022-09-07T15:15:22.136Z,25.40
2022-09-07T15:17:49.310Z,25.80
2022-09-07T15:20:32.653Z,26.30
2022-09-07T15:23:00.015Z,26.70
2022-09-07T15:25:26.986Z,27.00
2022-09-07T15:27:54.641Z,27.10
2022-09-07T15:30:21.510Z,27.20
2022-09-07T15:32:49.316Z,26.80
2022-09-07T15:35:16.371Z,26.60
2022-09-07T15:40:33.263Z,26.10
2022-09-07T15:43:01.177Z,25.90
2022-09-07T15:45:29.978Z,25.70
2022-09-07T15:47:57.121Z,25.60
2022-09-07T15:50:23.967Z,25.60
2022-09-07T15:52:50.968Z,25.90
2022-09-07T15:55:17.972Z,26.20
2022-09-07T15:57:50.053Z,26.30
2022-09-07T16:00:18.559Z,26.20
2022-09-07T16:05:34.117Z,26.10
2022-09-07T16:10:55.813Z,25.80
2022-09-07T16:13:24.488Z,25.60
2022-09-07T16:15:51.536Z,25.30
2022-09-07T16:18:18.734Z,25.30
2022-09-07T16:20:45.653Z,25.30
2022-09-07T16:23:14.982Z,25.20
2022-09-07T16:25:43.470Z,25.20
2022-09-07T16:28:10.569Z,25.20
2022-09-07T16:30:40.790Z,25.10
2022-09-07T16:33:07.719Z,25.00
2022-09-07T16:35:34.680Z,24.90
2022-09-07T16:40:50.924Z,24.70
2022-09-07T16:43:17.990Z,24.70
2022-09-07T16:48:32.313Z,24.70
2022-09-07T16:51:02.372Z,24.70
2022-09-07T16:53:30.146Z,24.60
2022-09-07T16:56:09.172Z,24.50
2022-09-07T16:58:38.001Z,24.40
2022-09-07T17:01:06.087Z,24.30
2022-09-07T17:03:32.970Z,24.20
2022-09-07T17:06:00.769Z,24.10
2022-09-07T17:08:27.919Z,24.00
2022-09-07T17:11:01.864Z,23.90
2022-09-07T17:13:30.424Z,23.80
2022-09-07T17:16:04.060Z,23.70
2022-09-07T17:21:19.791Z,23.50
2022-09-07T17:23:54.265Z,23.40
2022-09-07T17:26:23.657Z,23.30
2022-09-07T17:28:56.507Z,23.20
2022-09-07T17:34:16.234Z,22.90
2022-09-07T17:36:43.362Z,22.80
2022-09-07T17:39:14.937Z,22.80
2022-09-07T17:41:43.485Z,22.70
2022-09-07T17:44:10.804Z,22.60
2022-09-07T17:46:38.119Z,22.50
2022-09-07T17:49:08.146Z,22.40
2022-09-07T17:51:35.942Z,22.30
2022-09-07T17:54:09.186Z,22.10
2022-09-07T17:56:36.968Z,21.90
2022-09-07T18:01:51.145Z,21.60
2022-09-07T18:04:19.308Z,21.40
2022-09-07T18:06:46.291Z,21.30
2022-09-07T18:09:14.224Z,21.30
2022-09-07T18:11:47.220Z,21.20
2022-09-07T18:14:15.467Z,21.10
2022-09-07T18:16:43.108Z,20.90
2022-09-07T18:19:11.189Z,20.70
2022-09-07T18:21:39.338Z,20.70
2022-09-07T18:24:09.208Z,20.60
2022-09-07T18:26:39.163Z,20.50
2022-09-07T18:29:25.911Z,20.50
2022-09-07T18:31:53.916Z,20.50
2022-09-07T18:34:21.049Z,20.40
2022-09-07T18:36:47.955Z,20.40
2022-09-07T18:39:14.935Z,20.30
2022-09-07T18:41:42.266Z,20.20
2022-09-07T18:58:03.209Z,20.00
2022-09-07T19:00:30.090Z,20.00
2022-09-07T19:02:59.632Z,20.00
2022-09-07T19:08:17.275Z,20.00
2022-09-07T19:10:44.539Z,19.90
2022-09-07T19:13:12.649Z,20.00
2022-09-07T19:15:39.543Z,20.10
2022-09-07T19:18:07.459Z,20.20
2022-09-07T19:20:34.655Z,20.20
2022-09-07T19:23:01.545Z,20.10
2022-09-07T19:25:28.369Z,20.00
2022-09-07T19:27:55.273Z,20.00
2022-09-07T19:30:22.286Z,19.90
2022-09-07T19:32:49.160Z,19.90
2022-09-07T19:35:16.167Z,19.90
2022-09-07T19:37:43.039Z,19.80
2022-09-07T19:40:15.827Z,19.60
2022-09-07T19:42:45.482Z,19.50
2022-09-07T19:45:12.630Z,19.40
2022-09-07T19:47:39.476Z,19.40
2022-09-07T19:50:07.105Z,19.40
2022-09-07T19:52:34.007Z,19.40
2022-09-07T19:55:03.398Z,19.40
2022-09-07T19:57:30.299Z,19.30
2022-09-07T19:59:58.027Z,19.20
2022-09-07T20:02:25.031Z,19.10
2022-09-07T20:04:51.918Z,19.00
2022-09-07T20:07:18.753Z,18.90
2022-09-07T20:09:50.511Z,18.80
2022-09-07T20:12:19.114Z,18.80
2022-09-07T20:14:46.100Z,18.80
2022-09-07T20:17:13.061Z,18.90
2022-09-07T20:19:39.956Z,18.90
2022-09-07T20:22:06.779Z,18.90
2022-09-07T20:24:35.362Z,18.90
2022-09-07T20:27:03.005Z,18.80
2022-09-07T20:29:31.691Z,18.80
2022-09-07T20:31:59.346Z,18.70
2022-09-07T20:34:26.729Z,18.50
2022-09-07T20:36:54.193Z,18.50
2022-09-07T20:39:21.145Z,18.30
2022-09-07T20:41:48.381Z,18.20
2022-09-07T20:44:15.305Z,18.20
2022-09-07T20:46:42.336Z,18.10
2022-09-07T20:49:09.695Z,18.10
2022-09-07T20:51:36.659Z,18.00
2022-09-07T20:54:03.775Z,18.00
2022-09-07T20:56:31.190Z,17.90
2022-09-07T20:59:00.271Z,17.90
2022-09-07T21:01:28.098Z,17.80
2022-09-07T21:03:56.001Z,17.70
2022-09-07T21:06:23.208Z,17.80
2022-09-07T21:08:50.741Z,17.80
2022-09-07T21:11:22.313Z,17.80
2022-09-07T21:13:54.859Z,17.70
2022-09-07T21:16:21.722Z,17.70
2022-09-07T21:18:51.633Z,17.70
2022-09-07T21:21:20.036Z,17.70
2022-09-07T21:23:47.344Z,17.70
2022-09-07T21:26:14.266Z,17.70
2022-09-07T21:28:41.090Z,17.70
2022-09-07T21:31:09.148Z,17.70
2022-09-07T21:33:37.303Z,17.60
2022-09-07T21:36:05.123Z,17.60
2022-09-07T21:38:32.184Z,17.50
2022-09-07T21:40:59.036Z,17.50
2022-09-07T21:43:25.890Z,17.50
2022-09-07T21:45:52.814Z,17.40
2022-09-07T21:48:19.668Z,17.40
2022-09-07T21:50:46.934Z,17.40
2022-09-07T21:53:14.012Z,17.40
2022-09-07T21:55:40.832Z,17.30
2022-09-07T21:58:07.758Z,17.40
2022-09-07T22:00:34.937Z,17.40
2022-09-07T22:03:01.797Z,17.30
2022-09-07T22:05:28.617Z,17.30
2022-09-07T22:07:55.513Z,17.20
2022-09-07T22:10:22.389Z,17.10
2022-09-07T22:12:49.233Z,17.10
2022-09-07T22:15:17.199Z,17.10
2022-09-07T22:17:46.272Z,17.10
2022-09-07T22:20:13.340Z,17.10
2022-09-07T22:22:40.275Z,17.20
2022-09-07T22:25:07.206Z,17.10
2022-09-07T22:27:34.084Z,17.00
2022-09-07T22:30:00.926Z,17.00
2022-09-07T22:32:28.068Z,17.00
2022-09-07T22:34:54.936Z,17.00
2022-09-07T22:37:21.822Z,16.90
2022-09-07T22:39:48.890Z,16.90
2022-09-07T22:42:15.843Z,16.90
2022-09-07T22:44:42.724Z,16.90
2022-09-07T22:47:10.054Z,16.80
2022-09-07T22:49:37.110Z,16.80
2022-09-07T22:52:04.169Z,16.90
2022-09-07T22:54:31.031Z,16.80
2022-09-07T22:56:57.851Z,16.80
2022-09-07T22:59:24.766Z,16.80
2022-09-07T23:01:51.835Z,16.80
2022-09-07T23:04:18.830Z,16.70
2022-09-07T23:06:45.794Z,16.80
2022-09-07T23:09:17.555Z,16.80
2022-09-07T23:11:45.443Z,16.80
2022-09-07T23:14:15.210Z,16.80
2022-09-07T23:16:42.763Z,16.70
2022-09-07T23:19:11.312Z,16.70
2022-09-07T23:21:38.687Z,16.70
2022-09-07T23:24:05.618Z,16.70
2022-09-07T23:26:32.965Z,16.70
2022-09-07T23:29:00.895Z,16.70
2022-09-07T23:31:28.917Z,16.70
2022-09-07T23:33:57.144Z,16.60
2022-09-07T23:36:24.043Z,16.60
2022-09-07T23:38:54.040Z,16.50
2022-09-07T23:41:21.294Z,16.50
2022-09-07T23:43:48.544Z,16.50
2022-09-07T23:46:15.674Z,16.50
2022-09-07T23:48:43.646Z,16.50
2022-09-07T23:51:11.162Z,16.50
2022-09-07T23:53:38.158Z,16.50
2022-09-07T23:56:05.398Z,16.50
2022-09-07T23:58:32.281Z,16.50
